createdAt,value
2022-12-25T00:00:32.167Z,35.20
2022-12-25T00:03:24.106Z,33.80
2022-12-25T00:05:56.071Z,35.00
2022-12-25T00:08:28.787Z,38.30
2022-12-25T00:11:05.733Z,33.20
2022-12-25T00:13:37.867Z,42.00
2022-12-25T00:16:13.831Z,38.20
2022-12-25T00:18:47.300Z,41.30
2022-12-25T00:21:19.889Z,34.90
2022-12-25T00:23:55.920Z,40.20
2022-12-25T00:26:28.628Z,37.90
2022-12-25T00:29:01.123Z,40.90
2022-12-25T00:31:34.644Z,34.70
2022-12-25T00:34:09.754Z,32.80
2022-12-25T00:36:42.407Z,33.10
2022-12-25T00:39:14.306Z,40.20
2022-12-25T00:42:03.808Z,33.20
2022-12-25T00:44:36.181Z,39.50
2022-12-25T00:47:08.104Z,33.10
2022-12-25T00:49:40.178Z,34.30
2022-12-25T00:52:14.360Z,40.00
2022-12-25T00:57:18.253Z,32.00
2022-12-25T00:59:50.233Z,40.40
2022-12-25T01:02:25.681Z,37.20
2022-12-25T01:04:58.861Z,44.70
2022-12-25T01:07:30.644Z,45.90
2022-12-25T01:10:19.906Z,36.60
2022-12-25T01:12:52.772Z,30.40
2022-12-25T01:15:27.265Z,33.20
2022-12-25T01:18:02.634Z,33.80
2022-12-25T01:20:38.123Z,39.70
2022-12-25T01:23:10.106Z,36.70
2022-12-25T01:25:42.273Z,35.50
2022-12-25T01:28:14.095Z,40.90
2022-12-25T01:30:51.875Z,39.40
2022-12-25T01:33:23.757Z,35.70
2022-12-25T01:35:55.998Z,35.50
2022-12-25T01:38:27.861Z,32.90
2022-12-25T01:40:59.962Z,32.30
2022-12-25T01:43:33.686Z,33.80
2022-12-25T01:46:06.056Z,26.50
2022-12-25T01:48:41.746Z,31.30
2022-12-25T01:51:20.430Z,34.50
2022-12-25T01:53:52.899Z,34.60
2022-12-25T01:56:25.225Z,30.90
2022-12-25T01:58:57.601Z,31.80
2022-12-25T02:01:32.358Z,31.70
2022-12-25T02:04:08.325Z,30.60
2022-12-25T02:06:41.159Z,28.10
2022-12-25T02:09:13.701Z,25.70
2022-12-25T02:12:00.569Z,25.90
2022-12-25T02:14:35.859Z,30.70
2022-12-25T02:17:13.433Z,24.40
2022-12-25T02:19:59.682Z,29.30
2022-12-25T02:22:39.953Z,35.10
2022-12-25T02:25:25.485Z,32.40
2022-12-25T02:28:07.992Z,30.20
2022-12-25T02:30:44.575Z,31.00
2022-12-25T02:33:38.382Z,30.50
2022-12-25T02:36:13.267Z,32.00
2022-12-25T02:39:00.609Z,31.30
2022-12-25T02:41:35.436Z,35.40
2022-12-25T02:44:27.797Z,27.90
2022-12-25T02:47:16.964Z,36.20
2022-12-25T02:50:07.436Z,28.60
2022-12-25T02:52:57.353Z,36.20
2022-12-25T02:55:54.512Z,33.20
2022-12-25T02:58:44.659Z,33.50
2022-12-25T03:01:37.094Z,34.90
2022-12-25T03:04:30.115Z,35.40
2022-12-25T03:07:05.924Z,36.80
2022-12-25T03:09:57.557Z,33.20
2022-12-25T03:12:40.905Z,34.50
2022-12-25T03:15:31.988Z,34.80
2022-12-25T03:18:06.149Z,35.00
2022-12-25T03:23:46.894Z,35.50
2022-12-25T03:26:36.606Z,39.70
2022-12-25T03:29:09.335Z,32.10
2022-12-25T03:31:45.691Z,40.90
2022-12-25T03:34:44.744Z,41.00
2022-12-25T03:37:56.380Z,36.70
2022-12-25T03:40:50.813Z,39.70
2022-12-25T03:43:44.936Z,34.30
2022-12-25T03:46:37.115Z,30.00
2022-12-25T03:49:31.187Z,40.40
2022-12-25T03:52:22.020Z,38.90
2022-12-25T03:55:13.304Z,31.90
2022-12-25T03:58:03.441Z,33.80
2022-12-25T04:00:53.010Z,38.00
2022-12-25T04:03:47.729Z,39.70
2022-12-25T04:06:37.822Z,36.90
2022-12-25T04:09:28.996Z,34.90
2022-12-25T04:12:18.571Z,35.10
2022-12-25T04:15:07.953Z,37.70
2022-12-25T04:17:57.381Z,40.10
2022-12-25T04:20:50.489Z,40.90
2022-12-25T04:23:39.648Z,33.00
2022-12-25T04:26:29.205Z,34.50
2022-12-25T04:29:18.852Z,40.20
2022-12-25T04:32:08.745Z,35.80
2022-12-25T04:34:58.619Z,45.70
2022-12-25T04:37:31.705Z,40.50
2022-12-25T04:40:04.245Z,38.80
2022-12-25T04:42:37.313Z,33.60
2022-12-25T04:45:11.544Z,44.20
2022-12-25T04:47:44.316Z,38.70
2022-12-25T04:50:16.423Z,45.60
2022-12-25T04:52:50.170Z,40.80
2022-12-25T04:55:22.731Z,50.40
2022-12-25T04:57:54.599Z,42.70
2022-12-25T05:00:26.644Z,38.70
2022-12-25T05:03:00.373Z,47.30
2022-12-25T05:08:06.999Z,45.50
2022-12-25T05:10:42.218Z,44.30
2022-12-25T05:13:14.353Z,41.50
2022-12-25T05:15:46.426Z,50.90
2022-12-25T05:18:18.424Z,42.00
2022-12-25T05:20:56.439Z,42.70
2022-12-25T05:23:28.535Z,42.10
2022-12-25T05:26:00.898Z,45.80
2022-12-25T05:28:32.841Z,48.30
2022-12-25T05:31:06.260Z,43.50
2022-12-25T05:33:41.435Z,41.70
2022-12-25T05:36:14.948Z,46.40
2022-12-25T05:38:47.189Z,47.00
2022-12-25T05:41:19.134Z,45.80
2022-12-25T05:43:51.230Z,51.90
2022-12-25T05:46:23.896Z,48.60
2022-12-25T05:48:56.311Z,46.50
2022-12-25T05:51:28.501Z,51.30
2022-12-25T05:54:00.451Z,47.90
2022-12-25T05:56:32.304Z,43.60
2022-12-25T05:59:05.525Z,51.90
2022-12-25T06:01:37.389Z,45.30
2022-12-25T06:04:12.753Z,49.50
2022-12-25T06:06:46.914Z,45.30
2022-12-25T06:09:19.236Z,53.50
2022-12-25T06:11:51.091Z,51.00
2022-12-25T06:14:23.012Z,52.10
2022-12-25T06:16:56.313Z,48.80
2022-12-25T06:19:28.542Z,52.20
2022-12-25T06:22:00.386Z,51.90
2022-12-25T06:24:33.298Z,52.20
2022-12-25T06:27:05.142Z,45.60
2022-12-25T06:29:39.115Z,48.50
2022-12-25T06:32:10.941Z,51.20
2022-12-25T06:34:43.262Z,48.20
2022-12-25T06:37:15.168Z,52.00
2022-12-25T06:39:49.552Z,51.60
2022-12-25T06:44:53.573Z,43.90
2022-12-25T06:47:25.979Z,46.10
2022-12-25T06:49:59.700Z,43.40
2022-12-25T06:52:33.291Z,41.30
2022-12-25T06:55:05.754Z,43.70
2022-12-25T06:57:40.721Z,48.10
2022-12-25T07:00:15.236Z,49.60
2022-12-25T07:02:52.711Z,60.00
2022-12-25T07:05:27.668Z,55.30
2022-12-25T07:07:59.482Z,50.90
2022-12-25T07:10:31.615Z,56.20
2022-12-25T07:13:05.926Z,44.40
2022-12-25T07:15:38.065Z,57.70
2022-12-25T07:18:11.495Z,51.30
2022-12-25T07:20:43.903Z,60.30
2022-12-25T07:23:23.344Z,59.20
2022-12-25T07:26:00.673Z,48.60
2022-12-25T07:28:33.550Z,48.30
2022-12-25T07:31:07.215Z,51.50
2022-12-25T07:33:40.130Z,53.00
2022-12-25T07:38:48.020Z,49.00
2022-12-25T07:41:20.924Z,50.40
2022-12-25T07:43:54.168Z,38.60
2022-12-25T07:46:27.062Z,57.90
2022-12-25T07:49:03.677Z,64.50
2022-12-25T07:51:36.477Z,53.40
2022-12-25T07:54:08.586Z,69.70
2022-12-25T07:56:40.643Z,48.70
2022-12-25T07:59:12.746Z,51.70
2022-12-25T08:01:44.751Z,56.40
2022-12-25T08:04:17.181Z,53.70
2022-12-25T08:06:49.686Z,58.80
2022-12-25T08:09:22.862Z,54.80
2022-12-25T08:11:57.247Z,66.30
2022-12-25T08:14:32.254Z,50.00
2022-12-25T08:17:06.792Z,63.30
2022-12-25T08:19:42.967Z,53.30
2022-12-25T08:22:18.996Z,56.00
2022-12-25T08:24:55.121Z,55.00
2022-12-25T08:27:27.912Z,51.70
2022-12-25T08:30:01.559Z,54.60
2022-12-25T08:32:36.552Z,49.00
2022-12-25T08:35:10.596Z,51.50
2022-12-25T08:37:51.236Z,55.10
2022-12-25T08:40:24.634Z,40.60
2022-12-25T08:43:04.658Z,48.80
2022-12-25T08:45:37.026Z,47.30
2022-12-25T08:48:12.535Z,37.10
2022-12-25T08:50:50.535Z,46.30
2022-12-25T08:53:24.339Z,42.80
2022-12-25T08:56:05.288Z,40.60
2022-12-25T08:58:37.598Z,50.50
2022-12-25T09:01:10.225Z,40.80
2022-12-25T09:03:44.315Z,48.00
2022-12-25T09:06:17.881Z,48.90
2022-12-25T09:08:50.294Z,44.30
2022-12-25T09:11:25.498Z,47.60
2022-12-25T09:13:59.094Z,52.50
2022-12-25T09:16:33.512Z,45.80
2022-12-25T09:21:38.178Z,46.10
2022-12-25T09:24:13.909Z,48.50
2022-12-25T09:26:45.657Z,48.50
2022-12-25T09:29:18.866Z,44.10
2022-12-25T09:31:51.983Z,54.00
2022-12-25T09:34:23.998Z,52.70
2022-12-25T09:37:05.422Z,50.40
2022-12-25T09:39:45.869Z,47.10
2022-12-25T09:42:25.109Z,51.10
2022-12-25T09:45:01.142Z,49.00
2022-12-25T09:47:36.764Z,48.50
2022-12-25T09:50:13.162Z,48.90
2022-12-25T09:52:48.025Z,42.50
2022-12-25T09:55:24.391Z,53.80
2022-12-25T09:58:02.108Z,55.10
2022-12-25T10:00:36.981Z,45.40
2022-12-25T10:03:20.319Z,51.00
2022-12-25T10:06:03.291Z,39.20
2022-12-25T10:08:52.144Z,45.80
2022-12-25T10:11:40.958Z,47.10
2022-12-25T10:14:22.707Z,48.20
2022-12-25T10:17:08.836Z,41.40
2022-12-25T10:19:47.309Z,42.90
2022-12-25T10:22:25.171Z,48.10
2022-12-25T10:25:00.181Z,37.90
2022-12-25T10:27:41.391Z,43.80
2022-12-25T10:30:22.834Z,38.20
2022-12-25T10:32:57.016Z,40.40
2022-12-25T10:35:31.628Z,35.30
2022-12-25T10:38:11.561Z,34.00
2022-12-25T10:40:56.323Z,38.20
2022-12-25T10:43:47.923Z,38.00
2022-12-25T10:46:23.280Z,42.90
2022-12-25T10:48:57.840Z,38.90
2022-12-25T10:51:35.550Z,35.50
2022-12-25T10:54:26.038Z,44.80
2022-12-25T10:57:00.148Z,42.00
2022-12-25T10:59:35.813Z,38.70
2022-12-25T11:02:16.926Z,42.00
2022-12-25T11:04:49.800Z,40.80
2022-12-25T11:07:28.960Z,47.10
2022-12-25T11:10:05.686Z,38.80
2022-12-25T11:12:42.967Z,45.70
2022-12-25T11:15:36.332Z,37.60
2022-12-25T11:18:21.530Z,39.00
2022-12-25T11:20:55.539Z,44.90
2022-12-25T11:23:31.260Z,39.20
2022-12-25T11:26:04.662Z,36.40
2022-12-25T11:28:38.892Z,39.40
2022-12-25T11:33:45.974Z,34.20
2022-12-25T11:36:27.085Z,31.60
2022-12-25T11:39:09.354Z,32.00
2022-12-25T11:41:43.843Z,36.90
2022-12-25T11:44:35.249Z,41.30
2022-12-25T11:47:15.152Z,33.60
2022-12-25T11:49:58.595Z,38.80
2022-12-25T11:52:37.445Z,39.50
2022-12-25T11:55:16.842Z,36.00
2022-12-25T11:58:02.916Z,33.00
2022-12-25T12:00:39.401Z,41.10
2022-12-25T12:03:18.366Z,34.40
2022-12-25T12:05:58.321Z,39.40
2022-12-25T12:08:30.241Z,46.40
2022-12-25T12:11:18.233Z,45.70
2022-12-25T12:14:05.002Z,36.10
2022-12-25T12:16:39.478Z,38.80
2022-12-25T12:19:25.847Z,37.70
2022-12-25T12:21:58.535Z,39.60
2022-12-25T12:24:39.062Z,36.40
2022-12-25T12:27:26.406Z,39.50
2022-12-25T12:29:59.707Z,41.80
2022-12-25T12:32:40.881Z,41.50
2022-12-25T12:35:23.000Z,41.20
2022-12-25T12:37:57.103Z,41.30
2022-12-25T12:40:39.700Z,42.10
2022-12-25T12:43:30.096Z,38.40
2022-12-25T12:46:08.320Z,32.00
2022-12-25T12:48:49.047Z,38.80
2022-12-25T12:51:33.744Z,37.80
2022-12-25T12:54:23.657Z,39.40
2022-12-25T12:57:05.714Z,38.80
2022-12-25T12:59:46.328Z,44.30
2022-12-25T13:02:52.366Z,34.80
2022-12-25T13:05:34.737Z,36.00
2022-12-25T13:08:17.883Z,42.00
2022-12-25T13:10:52.872Z,42.20
2022-12-25T13:13:27.382Z,34.80
2022-12-25T13:16:02.170Z,33.10
2022-12-25T13:18:34.854Z,36.00
2022-12-25T13:21:15.760Z,42.00
2022-12-25T13:23:48.516Z,46.10
2022-12-25T13:26:20.526Z,45.60
2022-12-25T13:28:58.474Z,40.20
2022-12-25T13:31:34.040Z,41.20
2022-12-25T13:34:10.933Z,43.10
2022-12-25T13:36:44.239Z,46.50
2022-12-25T13:39:20.457Z,44.30
2022-12-25T13:42:07.836Z,42.40
2022-12-25T13:44:46.859Z,44.50
2022-12-25T13:47:25.015Z,42.40
2022-12-25T13:49:59.160Z,47.50
2022-12-25T13:52:37.810Z,45.30
2022-12-25T13:55:16.138Z,46.20
2022-12-25T13:57:50.672Z,49.20
2022-12-25T14:00:25.830Z,49.20
2022-12-25T14:02:59.151Z,51.40
2022-12-25T14:05:39.561Z,42.60
2022-12-25T14:08:18.459Z,47.40
2022-12-25T14:10:52.517Z,45.90
2022-12-25T14:13:26.418Z,40.50
2022-12-25T14:15:59.016Z,39.60
2022-12-25T14:18:31.570Z,37.50
2022-12-25T14:21:05.331Z,38.40
2022-12-25T14:23:42.446Z,40.60
2022-12-25T14:26:21.254Z,45.80
2022-12-25T14:28:55.197Z,45.70
2022-12-25T14:31:29.340Z,45.50
2022-12-25T14:34:03.290Z,50.70
2022-12-25T14:36:36.134Z,43.60
2022-12-25T14:39:09.126Z,43.90
2022-12-25T14:41:42.850Z,46.40
2022-12-25T14:44:31.420Z,46.50
2022-12-25T14:47:23.026Z,43.50
2022-12-25T14:49:54.948Z,52.10
2022-12-25T14:52:28.715Z,47.60
2022-12-25T14:55:03.266Z,55.30
2022-12-25T14:57:38.814Z,47.70
2022-12-25T15:00:24.458Z,59.50
2022-12-25T15:02:58.324Z,51.70
2022-12-25T15:05:36.256Z,56.10
2022-12-25T15:08:22.944Z,53.80
2022-12-25T15:11:00.493Z,61.40
2022-12-25T15:13:36.843Z,63.50
2022-12-25T15:16:13.634Z,53.30
2022-12-25T15:18:47.389Z,63.50
2022-12-25T15:21:21.929Z,66.40
2022-12-25T15:23:55.016Z,62.90
2022-12-25T15:26:27.722Z,65.60
2022-12-25T15:28:59.998Z,72.10
2022-12-25T15:31:34.282Z,68.30
2022-12-25T15:34:08.394Z,73.90
2022-12-25T15:36:40.457Z,83.60
2022-12-25T15:39:12.511Z,86.70
2022-12-25T15:42:02.377Z,80.10
2022-12-25T15:44:34.252Z,83.20
2022-12-25T15:47:06.466Z,76.00
2022-12-25T15:49:38.368Z,82.10
2022-12-25T15:52:11.973Z,83.50
2022-12-25T15:54:44.387Z,75.30
2022-12-25T15:57:22.306Z,97.60
2022-12-25T15:59:54.687Z,103.20
2022-12-25T16:02:28.328Z,98.30
2022-12-25T16:05:04.112Z,101.30
2022-12-25T16:07:38.883Z,99.80
2022-12-25T16:10:17.487Z,102.70
2022-12-25T16:12:49.399Z,94.80
2022-12-25T16:15:21.277Z,107.90
2022-12-25T16:17:53.225Z,106.10
2022-12-25T16:20:25.229Z,102.70
2022-12-25T16:22:58.575Z,122.40
2022-12-25T16:25:30.683Z,121.50
2022-12-25T16:28:03.714Z,116.30
2022-12-25T16:30:35.680Z,116.30
2022-12-25T16:33:07.932Z,104.40
2022-12-25T16:35:42.254Z,113.30
2022-12-25T16:38:16.824Z,136.50
2022-12-25T16:40:51.633Z,125.70
2022-12-25T16:43:25.427Z,119.80
2022-12-25T16:48:29.975Z,128.20
2022-12-25T16:51:02.285Z,119.80
2022-12-25T16:53:37.198Z,139.10
2022-12-25T16:56:10.179Z,103.40
2022-12-25T16:58:43.174Z,123.70
2022-12-25T17:01:16.769Z,120.90
2022-12-25T17:03:49.296Z,120.40
2022-12-25T17:06:23.221Z,126.60
2022-12-25T17:11:29.739Z,117.70
2022-12-25T17:14:03.762Z,124.90
2022-12-25T17:16:38.124Z,124.50
2022-12-25T17:19:16.934Z,107.50
2022-12-25T17:21:49.268Z,126.00
2022-12-25T17:24:21.356Z,117.00
2022-12-25T17:26:53.387Z,130.90
2022-12-25T17:29:26.360Z,118.30
2022-12-25T17:31:58.239Z,118.30
2022-12-25T17:34:30.063Z,97.90
2022-12-25T17:37:02.495Z,112.50
2022-12-25T17:39:34.469Z,106.40
2022-12-25T17:42:06.889Z,119.60
2022-12-25T17:44:38.770Z,106.00
2022-12-25T17:47:10.961Z,115.10
2022-12-25T17:49:43.438Z,113.90
2022-12-25T17:52:15.432Z,105.80
2022-12-25T17:54:47.245Z,110.20
2022-12-25T17:57:19.278Z,111.50
2022-12-25T17:59:51.259Z,102.10
2022-12-25T18:02:23.654Z,118.10
2022-12-25T18:04:55.648Z,110.10
2022-12-25T18:07:28.402Z,113.90
2022-12-25T18:10:00.635Z,128.40
2022-12-25T18:12:32.893Z,130.50
2022-12-25T18:15:06.741Z,109.60
2022-12-25T18:17:39.447Z,117.40
2022-12-25T18:20:14.115Z,117.10
2022-12-25T18:22:46.516Z,105.40
2022-12-25T18:25:18.986Z,112.80
2022-12-25T18:27:50.994Z,124.20
2022-12-25T18:30:23.194Z,109.30
2022-12-25T18:32:55.495Z,103.40
2022-12-25T18:35:29.938Z,113.30
2022-12-25T18:38:06.921Z,120.90
2022-12-25T18:40:52.897Z,108.50
2022-12-25T18:43:53.218Z,110.70
2022-12-25T18:46:34.781Z,108.50
2022-12-25T18:49:29.179Z,108.50
2022-12-25T18:52:47.576Z,111.70
2022-12-25T18:55:36.718Z,106.00
2022-12-25T18:58:23.638Z,100.30
2022-12-25T19:01:21.978Z,100.00
2022-12-25T19:04:16.592Z,82.00
2022-12-25T19:06:53.201Z,86.70
2022-12-25T19:09:36.439Z,81.30
2022-12-25T19:12:09.116Z,95.90
2022-12-25T19:14:57.148Z,90.20
2022-12-25T19:17:36.922Z,95.10
2022-12-25T19:20:27.624Z,78.50
2022-12-25T19:23:07.062Z,93.30
2022-12-25T19:25:43.856Z,92.80
2022-12-25T19:28:27.992Z,100.80
2022-12-25T19:31:11.928Z,93.80
2022-12-25T19:36:21.656Z,77.70
2022-12-25T19:38:53.793Z,78.60
2022-12-25T19:41:26.838Z,76.50
2022-12-25T19:44:16.299Z,101.00
2022-12-25T19:46:49.703Z,84.50
2022-12-25T19:49:21.746Z,78.90
2022-12-25T19:52:12.094Z,73.30
2022-12-25T19:54:43.941Z,70.10
2022-12-25T19:57:23.291Z,69.50
2022-12-25T19:59:55.273Z,61.80
2022-12-25T20:02:33.173Z,60.50
2022-12-25T20:05:38.176Z,72.30
2022-12-25T20:08:10.635Z,56.50
2022-12-25T20:10:56.712Z,74.10
2022-12-25T20:13:28.796Z,72.20
2022-12-25T20:16:11.282Z,67.00
2022-12-25T20:19:37.517Z,63.80
2022-12-25T20:22:14.570Z,72.90
2022-12-25T20:24:47.837Z,57.80
2022-12-25T20:27:28.749Z,68.80
2022-12-25T20:30:02.205Z,68.60
2022-12-25T20:32:50.083Z,73.30
2022-12-25T20:35:25.319Z,63.10
2022-12-25T20:37:57.192Z,70.60
2022-12-25T20:40:29.107Z,73.90
2022-12-25T20:43:01.125Z,67.10
2022-12-25T20:45:34.216Z,75.50
2022-12-25T20:48:07.605Z,70.30
2022-12-25T20:50:40.135Z,92.10
2022-12-25T20:53:12.335Z,62.20
2022-12-25T20:55:48.764Z,67.20
2022-12-25T20:58:20.869Z,56.90
2022-12-25T21:00:52.993Z,97.80
2022-12-25T21:03:25.040Z,74.10
2022-12-25T21:05:57.874Z,80.10
2022-12-25T21:08:30.121Z,77.80
2022-12-25T21:11:04.260Z,64.90
2022-12-25T21:16:10.311Z,64.90
2022-12-25T21:18:42.473Z,62.70
2022-12-25T21:21:15.024Z,73.90
2022-12-25T21:23:47.523Z,79.30
2022-12-25T21:26:21.640Z,71.20
2022-12-25T21:28:55.756Z,77.90
2022-12-25T21:34:00.676Z,54.30
2022-12-25T21:36:35.196Z,75.10
2022-12-25T21:41:41.467Z,76.30
2022-12-25T21:44:13.432Z,81.20
2022-12-25T21:46:45.988Z,67.00
2022-12-25T21:49:38.483Z,79.20
2022-12-25T21:52:11.558Z,73.20
2022-12-25T21:54:43.866Z,66.80
2022-12-25T21:57:15.993Z,67.80
2022-12-25T21:59:47.931Z,73.60
2022-12-25T22:02:20.288Z,74.80
2022-12-25T22:04:52.412Z,86.30
2022-12-25T22:07:24.748Z,81.30
2022-12-25T22:09:57.003Z,85.80
2022-12-25T22:12:47.130Z,87.00
2022-12-25T22:15:19.211Z,87.10
2022-12-25T22:18:08.809Z,81.20
2022-12-25T22:20:41.748Z,84.80
2022-12-25T22:23:14.590Z,78.80
2022-12-25T22:25:46.518Z,67.80
2022-12-25T22:28:18.624Z,84.50
2022-12-25T22:30:50.794Z,78.60
2022-12-25T22:33:23.297Z,77.50
2022-12-25T22:36:05.064Z,77.90
2022-12-25T22:38:37.338Z,74.90
2022-12-25T22:41:09.971Z,77.80
2022-12-25T22:44:15.947Z,73.50
2022-12-25T22:46:33.914Z,80.00
2022-12-25T22:49:06.011Z,80.90
2022-12-25T22:51:37.838Z,72.40
2022-12-25T22:54:09.903Z,72.10
2022-12-25T22:56:44.073Z,60.80
2022-12-25T22:59:17.388Z,70.40
2022-12-25T23:04:21.195Z,63.90
2022-12-25T23:06:53.616Z,57.30
2022-12-25T23:09:28.483Z,60.90
2022-12-25T23:12:01.704Z,58.20
2022-12-25T23:14:42.571Z,67.00
2022-12-25T23:17:29.267Z,61.30
2022-12-25T23:20:20.033Z,68.40
2022-12-25T23:23:09.965Z,74.50
2022-12-25T23:25:59.705Z,60.00
2022-12-25T23:28:49.017Z,59.70
2022-12-25T23:31:21.446Z,61.40
2022-12-25T23:33:53.899Z,60.80
2022-12-25T23:36:26.410Z,63.90
2022-12-25T23:39:04.750Z,62.60
2022-12-25T23:41:41.600Z,59.10
2022-12-25T23:44:13.797Z,58.90
2022-12-25T23:46:53.316Z,60.20
2022-12-25T23:49:26.684Z,60.00
2022-12-25T23:51:59.100Z,55.10
2022-12-25T23:54:32.514Z,58.40
2022-12-25T23:57:04.497Z,52.90
2022-12-25T23:59:38.817Z,49.10
